createdAt,value
2018-12-03T00:00:02.029Z,13.50
2018-12-03T00:02:32.001Z,13.50
2018-12-03T00:05:03.502Z,13.50
2018-12-03T00:07:33.857Z,13.50
2018-12-03T00:10:04.808Z,13.60
2018-12-03T00:12:36.165Z,13.60
2018-12-03T00:15:08.932Z,13.50
2018-12-03T00:17:38.925Z,13.50
2018-12-03T00:20:11.195Z,13.50
2018-12-03T00:22:41.698Z,13.50
2018-12-03T00:25:11.719Z,13.50
2018-12-03T00:27:42.118Z,13.50
2018-12-03T00:30:12.141Z,13.50
2018-12-03T00:32:41.847Z,13.60
2018-12-03T00:35:11.769Z,13.60
2018-12-03T00:37:43.365Z,13.50
2018-12-03T00:40:13.543Z,13.50
2018-12-03T00:42:43.756Z,13.50
2018-12-03T00:45:14.127Z,13.50
2018-12-03T00:47:43.689Z,13.50
2018-12-03T00:50:14.056Z,13.40
2018-12-03T00:52:44.420Z,13.40
2018-12-03T00:55:14.832Z,13.40
2018-12-03T00:57:45.090Z,13.40
2018-12-03T01:00:14.696Z,13.30
2018-12-03T01:02:45.710Z,13.30
2018-12-03T01:05:15.287Z,13.20
2018-12-03T01:07:45.403Z,13.20
2018-12-03T01:10:15.456Z,13.20
2018-12-03T01:12:45.164Z,13.20
2018-12-03T01:15:15.957Z,13.20
2018-12-03T01:17:45.701Z,13.20
2018-12-03T01:20:15.932Z,13.20
2018-12-03T01:22:45.518Z,13.20
2018-12-03T01:25:15.524Z,13.20
2018-12-03T01:27:45.296Z,13.20
2018-12-03T01:30:15.231Z,13.20
2018-12-03T01:32:45.015Z,13.20
2018-12-03T01:35:14.959Z,13.20
2018-12-03T01:37:44.783Z,13.20
2018-12-03T01:40:15.503Z,13.20
2018-12-03T01:42:45.446Z,13.20
2018-12-03T01:45:15.174Z,13.20
2018-12-03T01:47:45.098Z,13.20
2018-12-03T01:50:16.350Z,13.20
2018-12-03T01:52:46.572Z,13.20
2018-12-03T01:55:16.691Z,13.20
2018-12-03T01:57:46.689Z,13.20
2018-12-03T02:00:20.841Z,13.20
2018-12-03T02:02:51.411Z,13.20
2018-12-03T02:05:21.773Z,13.20
2018-12-03T02:07:51.998Z,13.20
2018-12-03T02:10:23.376Z,13.20
2018-12-03T02:12:53.509Z,13.20
2018-12-03T02:15:24.174Z,13.20
2018-12-03T02:17:54.023Z,13.20
2018-12-03T02:20:24.741Z,13.20
2018-12-03T02:22:55.690Z,13.20
2018-12-03T02:25:26.739Z,13.20
2018-12-03T02:27:57.526Z,13.20
2018-12-03T02:30:32.162Z,13.20
2018-12-03T02:33:02.061Z,13.20
2018-12-03T02:35:32.378Z,13.20
2018-12-03T02:38:02.412Z,13.20
2018-12-03T02:40:32.414Z,13.10
2018-12-03T02:43:02.127Z,13.10
2018-12-03T02:45:32.271Z,13.10
2018-12-03T02:48:02.357Z,13.20
2018-12-03T02:50:32.106Z,13.10
2018-12-03T02:53:02.272Z,13.10
2018-12-03T02:55:33.240Z,13.10
2018-12-03T02:58:02.645Z,13.10
2018-12-03T03:00:32.974Z,13.00
2018-12-03T03:03:02.940Z,12.90
2018-12-03T03:05:32.536Z,12.90
2018-12-03T03:08:03.151Z,12.90
2018-12-03T03:10:33.016Z,12.80
2018-12-03T03:13:02.537Z,12.80
2018-12-03T03:15:32.542Z,12.80
2018-12-03T03:18:02.085Z,12.80
2018-12-03T03:20:31.544Z,12.80
2018-12-03T03:23:00.930Z,12.70
2018-12-03T03:25:30.232Z,12.60
2018-12-03T03:27:59.509Z,12.50
2018-12-03T03:30:28.745Z,12.40
2018-12-03T03:32:58.029Z,12.30
2018-12-03T03:35:27.198Z,12.20
2018-12-03T03:37:57.448Z,12.10
2018-12-03T03:40:26.964Z,12.10
2018-12-03T03:42:56.486Z,12.10
2018-12-03T03:45:26.438Z,12.10
2018-12-03T03:47:55.737Z,12.10
2018-12-03T03:50:25.180Z,12.10
2018-12-03T03:52:55.160Z,12.00
2018-12-03T03:55:24.664Z,12.00
2018-12-03T03:57:53.858Z,12.00
2018-12-03T04:00:23.130Z,12.00
2018-12-03T04:02:52.455Z,12.00
2018-12-03T04:05:21.980Z,12.00
2018-12-03T04:07:54.559Z,12.10
2018-12-03T04:10:23.686Z,12.10
2018-12-03T04:12:53.575Z,12.10
2018-12-03T04:15:22.857Z,12.10
2018-12-03T04:17:52.148Z,12.20
2018-12-03T04:20:22.175Z,12.20
2018-12-03T04:22:53.719Z,12.20
2018-12-03T04:25:22.875Z,12.20
2018-12-03T04:27:52.537Z,12.20
2018-12-03T04:30:22.672Z,12.20
2018-12-03T04:32:52.889Z,12.20
2018-12-03T04:35:22.920Z,12.20
2018-12-03T04:37:52.493Z,12.20
2018-12-03T04:40:21.929Z,12.20
2018-12-03T04:42:51.237Z,12.20
2018-12-03T04:45:20.902Z,12.20
2018-12-03T04:47:50.850Z,12.20
2018-12-03T04:50:22.771Z,12.20
2018-12-03T04:52:51.951Z,12.20
2018-12-03T04:55:21.587Z,12.20
2018-12-03T04:57:51.132Z,12.20
2018-12-03T05:00:21.643Z,12.20
2018-12-03T05:02:51.925Z,12.20
2018-12-03T05:05:21.741Z,12.20
2018-12-03T05:07:50.789Z,12.20
2018-12-03T05:10:21.675Z,12.30
2018-12-03T05:12:52.159Z,12.30
2018-12-03T05:15:21.484Z,12.30
2018-12-03T05:17:50.930Z,12.40
2018-12-03T05:20:21.639Z,12.40
2018-12-03T05:22:50.706Z,12.40
2018-12-03T05:25:19.948Z,12.40
2018-12-03T05:27:49.262Z,12.40
2018-12-03T05:30:18.929Z,12.40
2018-12-03T05:32:48.582Z,12.50
2018-12-03T05:35:20.104Z,12.50
2018-12-03T05:37:49.411Z,12.50
2018-12-03T05:40:21.543Z,12.50
2018-12-03T05:42:50.623Z,12.50
2018-12-03T05:45:20.203Z,12.50
2018-12-03T05:47:49.764Z,12.50
2018-12-03T05:50:18.874Z,12.50
2018-12-03T05:52:48.746Z,12.50
2018-12-03T05:55:20.079Z,12.50
2018-12-03T05:57:49.579Z,12.50
2018-12-03T06:00:36.489Z,12.50
2018-12-03T06:03:06.254Z,12.50
2018-12-03T06:05:35.389Z,12.50
2018-12-03T06:08:05.163Z,12.50
2018-12-03T06:10:34.841Z,12.50
2018-12-03T06:13:04.420Z,12.50
2018-12-03T06:15:33.678Z,12.50
2018-12-03T06:18:02.946Z,12.50
2018-12-03T06:20:33.214Z,12.50
2018-12-03T06:23:02.304Z,12.50
2018-12-03T06:25:31.948Z,12.50
2018-12-03T06:28:01.681Z,12.50
2018-12-03T06:30:31.269Z,12.50
2018-12-03T06:33:00.554Z,12.40
2018-12-03T06:35:33.249Z,12.40
2018-12-03T06:38:02.429Z,12.40
2018-12-03T06:40:32.296Z,12.40
2018-12-03T06:43:01.509Z,12.40
2018-12-03T06:45:30.855Z,12.40
2018-12-03T06:48:05.732Z,12.40
2018-12-03T06:50:41.803Z,12.40
2018-12-03T06:53:13.866Z,12.30
2018-12-03T06:56:04.277Z,12.30
2018-12-03T07:01:25.513Z,12.30
2018-12-03T07:04:01.682Z,12.20
2018-12-03T07:09:18.879Z,12.10
2018-12-03T07:11:59.356Z,12.10
2018-12-03T07:14:43.036Z,12.00
2018-12-03T07:17:30.679Z,12.00
2018-12-03T07:20:08.782Z,12.00
2018-12-03T07:22:53.854Z,12.00
2018-12-03T07:25:45.441Z,11.90
2018-12-03T07:28:22.582Z,11.90
2018-12-03T07:31:00.465Z,11.90
2018-12-03T07:33:34.877Z,11.80
2018-12-03T07:36:17.888Z,11.80
2018-12-03T07:38:56.692Z,11.80
2018-12-03T07:41:36.345Z,11.80
2018-12-03T07:44:13.318Z,11.90
2018-12-03T07:46:51.212Z,11.90
2018-12-03T07:49:34.892Z,11.80
2018-12-03T07:52:09.066Z,11.80
2018-12-03T07:54:40.506Z,11.80
2018-12-03T07:57:11.838Z,11.80
2018-12-03T07:59:42.007Z,11.80
2018-12-03T08:02:11.739Z,11.80
2018-12-03T08:04:50.093Z,11.70
2018-12-03T08:07:25.838Z,11.80
2018-12-03T08:10:11.026Z,11.80
2018-12-03T08:12:51.327Z,11.80
2018-12-03T08:15:27.673Z,11.90
2018-12-03T08:18:12.218Z,11.90
2018-12-03T08:20:54.693Z,11.90
2018-12-03T08:24:04.081Z,12.10
2018-12-03T08:26:39.443Z,12.00
2018-12-03T08:29:10.116Z,12.10
2018-12-03T08:31:40.591Z,12.10
2018-12-03T08:34:10.956Z,12.10
2018-12-03T08:36:42.271Z,12.10
2018-12-03T08:39:14.076Z,12.10
2018-12-03T08:41:46.203Z,12.10
2018-12-03T08:44:17.363Z,12.20
2018-12-03T08:46:49.532Z,12.20
2018-12-03T08:49:19.950Z,12.20
2018-12-03T08:51:50.352Z,12.10
2018-12-03T08:54:21.366Z,12.10
2018-12-03T08:56:52.791Z,12.10
2018-12-03T08:59:25.388Z,12.10
2018-12-03T09:01:58.057Z,12.10
2018-12-03T09:04:32.996Z,12.10
2018-12-03T09:07:06.919Z,12.10
2018-12-03T09:09:40.340Z,12.10
2018-12-03T09:12:10.760Z,12.20
2018-12-03T09:14:41.524Z,12.10
2018-12-03T09:17:14.879Z,12.10
2018-12-03T09:19:51.400Z,12.10
2018-12-03T09:22:25.354Z,12.10
2018-12-03T09:24:59.730Z,12.10
2018-12-03T09:27:36.052Z,12.20
2018-12-03T09:30:08.312Z,12.20
2018-12-03T09:32:41.009Z,12.20
2018-12-03T09:35:17.746Z,12.20
2018-12-03T09:37:53.070Z,12.20
2018-12-03T09:40:36.497Z,12.20
2018-12-03T09:43:12.424Z,12.30
2018-12-03T09:45:54.668Z,12.30
2018-12-03T09:48:45.561Z,12.30
2018-12-03T09:51:17.725Z,12.40
2018-12-03T09:53:49.945Z,12.40
2018-12-03T09:56:21.782Z,12.40
2018-12-03T09:58:51.972Z,12.40
2018-12-03T10:01:22.736Z,12.50
2018-12-03T10:03:56.526Z,12.50
2018-12-03T10:06:28.477Z,12.50
